sensor_id;sensor_type;location;lat;lon;timestamp;P1;durP1;ratioP1;P2;durP2;ratioP2
64938;SDS011;51453;47.738;7.420;2023-03-23T00:01:11;4.53;;;3.58;;
64938;SDS011;51453;47.738;7.420;2023-03-23T00:03:38;5.32;;;3.90;;
64938;SDS011;51453;47.738;7.420;2023-03-23T00:06:05;7.45;;;4.10;;
64938;SDS011;51453;47.738;7.420;2023-03-23T00:08:36;5.55;;;3.78;;
64938;SDS011;51453;47.738;7.420;2023-03-23T00:11:10;6.57;;;3.50;;
64938;SDS011;51453;47.738;7.420;2023-03-23T00:13:43;7.80;;;3.95;;
64938;SDS011;51453;47.738;7.420;2023-03-23T00:16:09;7.32;;;4.00;;
64938;SDS011;51453;47.738;7.420;2023-03-23T00:18:48;6.78;;;3.95;;
64938;SDS011;51453;47.738;7.420;2023-03-23T00:21:19;7.65;;;4.22;;
64938;SDS011;51453;47.738;7.420;2023-03-23T00:23:45;7.82;;;4.05;;
64938;SDS011;51453;47.738;7.420;2023-03-23T00:26:11;5.97;;;3.55;;
64938;SDS011;51453;47.738;7.420;2023-03-23T00:28:37;6.45;;;4.00;;
64938;SDS011;51453;47.738;7.420;2023-03-23T00:31:06;5.53;;;3.92;;
64938;SDS011;51453;47.738;7.420;2023-03-23T00:33:33;6.13;;;3.78;;
64938;SDS011;51453;47.738;7.420;2023-03-23T00:36:03;6.43;;;3.15;;
64938;SDS011;51453;47.738;7.420;2023-03-23T00:38:30;7.35;;;3.90;;
64938;SDS011;51453;47.738;7.420;2023-03-23T00:40:56;5.38;;;3.47;;
64938;SDS011;51453;47.738;7.420;2023-03-23T00:43:23;6.45;;;4.07;;
64938;SDS011;51453;47.738;7.420;2023-03-23T00:45:53;7.05;;;4.07;;
64938;SDS011;51453;47.738;7.420;2023-03-23T00:48:20;10.98;;;3.78;;
64938;SDS011;51453;47.738;7.420;2023-03-23T00:50:47;5.28;;;3.55;;
64938;SDS011;51453;47.738;7.420;2023-03-23T00:53:14;7.78;;;3.55;;
64938;SDS011;51453;47.738;7.420;2023-03-23T00:55:44;5.32;;;3.40;;
64938;SDS011;51453;47.738;7.420;2023-03-23T00:58:14;9.88;;;3.78;;
64938;SDS011;51453;47.738;7.420;2023-03-23T01:00:43;7.03;;;3.72;;
64938;SDS011;51453;47.738;7.420;2023-03-23T01:03:09;5.65;;;3.50;;
64938;SDS011;51453;47.738;7.420;2023-03-23T01:05:43;6.97;;;4.03;;
64938;SDS011;51453;47.738;7.420;2023-03-23T01:08:14;6.68;;;3.95;;
64938;SDS011;51453;47.738;7.420;2023-03-23T01:10:41;7.07;;;3.75;;
64938;SDS011;51453;47.738;7.420;2023-03-23T01:13:07;6.43;;;4.13;;
64938;SDS011;51453;47.738;7.420;2023-03-23T01:15:33;5.90;;;3.42;;
64938;SDS011;51453;47.738;7.420;2023-03-23T01:18:00;6.13;;;3.72;;
64938;SDS011;51453;47.738;7.420;2023-03-23T01:20:27;7.05;;;3.75;;
64938;SDS011;51453;47.738;7.420;2023-03-23T01:22:54;5.72;;;3.63;;
64938;SDS011;51453;47.738;7.420;2023-03-23T01:25:25;5.93;;;3.50;;
64938;SDS011;51453;47.738;7.420;2023-03-23T01:27:52;5.63;;;3.75;;
64938;SDS011;51453;47.738;7.420;2023-03-23T01:30:18;6.93;;;3.95;;
64938;SDS011;51453;47.738;7.420;2023-03-23T01:32:44;4.95;;;3.33;;
64938;SDS011;51453;47.738;7.420;2023-03-23T01:35:11;6.20;;;3.45;;
64938;SDS011;51453;47.738;7.420;2023-03-23T01:37:39;4.53;;;3.00;;
64938;SDS011;51453;47.738;7.420;2023-03-23T01:40:05;4.78;;;3.00;;
64938;SDS011;51453;47.738;7.420;2023-03-23T01:42:32;5.40;;;3.05;;
64938;SDS011;51453;47.738;7.420;2023-03-23T01:48:18;5.18;;;2.80;;
64938;SDS011;51453;47.738;7.420;2023-03-23T01:50:47;6.03;;;3.03;;
64938;SDS011;51453;47.738;7.420;2023-03-23T01:53:16;3.67;;;2.95;;
64938;SDS011;51453;47.738;7.420;2023-03-23T01:55:43;8.10;;;3.00;;
64938;SDS011;51453;47.738;7.420;2023-03-23T01:58:16;6.15;;;3.08;;
64938;SDS011;51453;47.738;7.420;2023-03-23T02:00:46;4.93;;;3.00;;
64938;SDS011;51453;47.738;7.420;2023-03-23T02:03:13;5.72;;;2.97;;
64938;SDS011;51453;47.738;7.420;2023-03-23T02:05:45;13.18;;;3.15;;
64938;SDS011;51453;47.738;7.420;2023-03-23T02:08:11;7.68;;;3.30;;
64938;SDS011;51453;47.738;7.420;2023-03-23T02:10:39;8.70;;;3.20;;
64938;SDS011;51453;47.738;7.420;2023-03-23T02:13:05;4.32;;;2.55;;
64938;SDS011;51453;47.738;7.420;2023-03-23T02:15:41;8.20;;;3.28;;
64938;SDS011;51453;47.738;7.420;2023-03-23T02:18:37;7.03;;;2.80;;
64938;SDS011;51453;47.738;7.420;2023-03-23T02:27:09;6.35;;;3.20;;
64938;SDS011;51453;47.738;7.420;2023-03-23T02:37:50;7.47;;;3.45;;
64938;SDS011;51453;47.738;7.420;2023-03-23T02:40:24;7.72;;;3.10;;
64938;SDS011;51453;47.738;7.420;2023-03-23T02:42:55;9.65;;;3.30;;
64938;SDS011;51453;47.738;7.420;2023-03-23T02:45:23;6.65;;;3.00;;
64938;SDS011;51453;47.738;7.420;2023-03-23T02:47:53;5.13;;;2.90;;
64938;SDS011;51453;47.738;7.420;2023-03-23T02:50:21;5.45;;;3.30;;
64938;SDS011;51453;47.738;7.420;2023-03-23T02:52:50;8.27;;;3.58;;
64938;SDS011;51453;47.738;7.420;2023-03-23T02:55:20;9.55;;;3.28;;
64938;SDS011;51453;47.738;7.420;2023-03-23T02:57:51;9.20;;;3.88;;
64938;SDS011;51453;47.738;7.420;2023-03-23T03:00:18;8.35;;;3.28;;
64938;SDS011;51453;47.738;7.420;2023-03-23T03:02:51;6.57;;;3.60;;
64938;SDS011;51453;47.738;7.420;2023-03-23T03:08:41;11.93;;;3.85;;
64938;SDS011;51453;47.738;7.420;2023-03-23T03:11:22;6.88;;;3.58;;
64938;SDS011;51453;47.738;7.420;2023-03-23T03:13:52;6.97;;;3.60;;
64938;SDS011;51453;47.738;7.420;2023-03-23T03:19:08;11.40;;;3.78;;
64938;SDS011;51453;47.738;7.420;2023-03-23T03:21:37;7.75;;;3.00;;
64938;SDS011;51453;47.738;7.420;2023-03-23T03:24:06;10.05;;;3.50;;
64938;SDS011;51453;47.738;7.420;2023-03-23T03:26:36;8.48;;;3.47;;
64938;SDS011;51453;47.738;7.420;2023-03-23T03:29:04;6.68;;;3.65;;
64938;SDS011;51453;47.738;7.420;2023-03-23T03:31:35;12.68;;;3.63;;
64938;SDS011;51453;47.738;7.420;2023-03-23T03:34:04;7.50;;;3.35;;
64938;SDS011;51453;47.738;7.420;2023-03-23T03:36:33;11.02;;;3.80;;
64938;SDS011;51453;47.738;7.420;2023-03-23T03:39:05;5.70;;;3.25;;
64938;SDS011;51453;47.738;7.420;2023-03-23T03:41:36;8.20;;;3.17;;
64938;SDS011;51453;47.738;7.420;2023-03-23T03:44:03;5.07;;;2.83;;
64938;SDS011;51453;47.738;7.420;2023-03-23T03:46:31;7.18;;;3.30;;
64938;SDS011;51453;47.738;7.420;2023-03-23T03:48:58;9.35;;;2.90;;
64938;SDS011;51453;47.738;7.420;2023-03-23T03:51:25;4.78;;;3.10;;
64938;SDS011;51453;47.738;7.420;2023-03-23T03:53:52;6.00;;;2.88;;
64938;SDS011;51453;47.738;7.420;2023-03-23T03:56:18;3.88;;;2.75;;
64938;SDS011;51453;47.738;7.420;2023-03-23T03:58:45;5.43;;;2.80;;
64938;SDS011;51453;47.738;7.420;2023-03-23T04:01:13;6.90;;;3.00;;
64938;SDS011;51453;47.738;7.420;2023-03-23T04:03:40;5.22;;;2.70;;
64938;SDS011;51453;47.738;7.420;2023-03-23T04:06:06;6.07;;;3.15;;
64938;SDS011;51453;47.738;7.420;2023-03-23T04:08:33;8.05;;;3.45;;
64938;SDS011;51453;47.738;7.420;2023-03-23T04:10:59;6.15;;;3.35;;
64938;SDS011;51453;47.738;7.420;2023-03-23T04:13:25;5.35;;;2.88;;
64938;SDS011;51453;47.738;7.420;2023-03-23T04:15:50;7.57;;;3.30;;
64938;SDS011;51453;47.738;7.420;2023-03-23T04:18:16;8.27;;;2.72;;
64938;SDS011;51453;47.738;7.420;2023-03-23T04:20:43;4.35;;;2.60;;
64938;SDS011;51453;47.738;7.420;2023-03-23T04:23:12;6.85;;;2.92;;
64938;SDS011;51453;47.738;7.420;2023-03-23T04:25:38;7.43;;;2.60;;
64938;SDS011;51453;47.738;7.420;2023-03-23T04:28:07;6.25;;;2.83;;
64938;SDS011;51453;47.738;7.420;2023-03-23T04:30:35;4.45;;;2.75;;
64938;SDS011;51453;47.738;7.420;2023-03-23T04:33:01;5.55;;;2.42;;
64938;SDS011;51453;47.738;7.420;2023-03-23T04:35:28;5.07;;;2.33;;
64938;SDS011;51453;47.738;7.420;2023-03-23T04:37:54;4.88;;;2.65;;
64938;SDS011;51453;47.738;7.420;2023-03-23T04:40:21;8.52;;;2.80;;
64938;SDS011;51453;47.738;7.420;2023-03-23T04:42:47;3.65;;;2.30;;
64938;SDS011;51453;47.738;7.420;2023-03-23T04:45:17;6.35;;;2.58;;
64938;SDS011;51453;47.738;7.420;2023-03-23T04:47:47;5.03;;;2.38;;
64938;SDS011;51453;47.738;7.420;2023-03-23T04:50:22;3.17;;;2.35;;
64938;SDS011;51453;47.738;7.420;2023-03-23T04:52:59;3.90;;;2.20;;
64938;SDS011;51453;47.738;7.420;2023-03-23T04:55:32;4.93;;;2.05;;
64938;SDS011;51453;47.738;7.420;2023-03-23T04:58:01;6.57;;;2.22;;
64938;SDS011;51453;47.738;7.420;2023-03-23T05:00:32;10.07;;;2.35;;
64938;SDS011;51453;47.738;7.420;2023-03-23T05:02:58;7.82;;;2.05;;
64938;SDS011;51453;47.738;7.420;2023-03-23T05:05:24;3.53;;;1.95;;
64938;SDS011;51453;47.738;7.420;2023-03-23T05:07:50;2.78;;;1.85;;
64938;SDS011;51453;47.738;7.420;2023-03-23T05:10:16;4.18;;;1.88;;
64938;SDS011;51453;47.738;7.420;2023-03-23T05:12:43;3.65;;;1.60;;
64938;SDS011;51453;47.738;7.420;2023-03-23T05:15:10;4.15;;;1.73;;
64938;SDS011;51453;47.738;7.420;2023-03-23T05:17:37;4.15;;;2.65;;
64938;SDS011;51453;47.738;7.420;2023-03-23T05:20:03;3.90;;;1.60;;
64938;SDS011;51453;47.738;7.420;2023-03-23T05:22:33;4.05;;;1.90;;
64938;SDS011;51453;47.738;7.420;2023-03-23T05:24:59;5.45;;;2.13;;
64938;SDS011;51453;47.738;7.420;2023-03-23T05:27:27;4.47;;;2.13;;
64938;SDS011;51453;47.738;7.420;2023-03-23T05:29:55;5.13;;;2.20;;
64938;SDS011;51453;47.738;7.420;2023-03-23T05:32:23;3.22;;;2.20;;
64938;SDS011;51453;47.738;7.420;2023-03-23T05:35:03;3.00;;;1.90;;
64938;SDS011;51453;47.738;7.420;2023-03-23T05:37:29;3.47;;;2.20;;
64938;SDS011;51453;47.738;7.420;2023-03-23T05:40:00;5.25;;;2.55;;
64938;SDS011;51453;47.738;7.420;2023-03-23T05:42:34;3.85;;;2.40;;
64938;SDS011;51453;47.738;7.420;2023-03-23T05:45:01;3.85;;;2.72;;
64938;SDS011;51453;47.738;7.420;2023-03-23T05:47:28;5.28;;;2.75;;
64938;SDS011;51453;47.738;7.420;2023-03-23T05:49:55;4.70;;;2.63;;
64938;SDS011;51453;47.738;7.420;2023-03-23T05:52:21;3.25;;;2.38;;
64938;SDS011;51453;47.738;7.420;2023-03-23T05:54:48;4.20;;;2.40;;
64938;SDS011;51453;47.738;7.420;2023-03-23T05:57:14;2.95;;;2.00;;
64938;SDS011;51453;47.738;7.420;2023-03-23T05:59:40;3.08;;;2.00;;
64938;SDS011;51453;47.738;7.420;2023-03-23T06:02:06;3.50;;;2.63;;
64938;SDS011;51453;47.738;7.420;2023-03-23T06:04:31;2.70;;;2.10;;
64938;SDS011;51453;47.738;7.420;2023-03-23T06:06:59;4.97;;;2.00;;
64938;SDS011;51453;47.738;7.420;2023-03-23T06:09:28;2.88;;;2.13;;
64938;SDS011;51453;47.738;7.420;2023-03-23T06:11:55;3.80;;;2.05;;
64938;SDS011;51453;47.738;7.420;2023-03-23T06:14:21;4.47;;;2.75;;
64938;SDS011;51453;47.738;7.420;2023-03-23T06:16:47;2.88;;;2.17;;
64938;SDS011;51453;47.738;7.420;2023-03-23T06:19:12;4.53;;;2.65;;
64938;SDS011;51453;47.738;7.420;2023-03-23T06:21:39;9.30;;;3.13;;
64938;SDS011;51453;47.738;7.420;2023-03-23T06:24:05;5.20;;;3.20;;
64938;SDS011;51453;47.738;7.420;2023-03-23T06:26:34;3.80;;;3.17;;
64938;SDS011;51453;47.738;7.420;2023-03-23T06:29:02;6.18;;;3.28;;
64938;SDS011;51453;47.738;7.420;2023-03-23T06:31:35;3.30;;;3.00;;
64938;SDS011;51453;47.738;7.420;2023-03-23T06:34:12;5.18;;;3.08;;
64938;SDS011;51453;47.738;7.420;2023-03-23T06:36:39;4.90;;;3.67;;
64938;SDS011;51453;47.738;7.420;2023-03-23T06:39:05;5.45;;;3.10;;
64938;SDS011;51453;47.738;7.420;2023-03-23T06:41:32;6.13;;;2.90;;
64938;SDS011;51453;47.738;7.420;2023-03-23T06:43:58;6.50;;;2.88;;
64938;SDS011;51453;47.738;7.420;2023-03-23T06:46:24;5.50;;;2.28;;
64938;SDS011;51453;47.738;7.420;2023-03-23T06:48:50;4.65;;;2.03;;
64938;SDS011;51453;47.738;7.420;2023-03-23T06:51:16;4.95;;;2.15;;
64938;SDS011;51453;47.738;7.420;2023-03-23T06:53:42;2.20;;;2.00;;
64938;SDS011;51453;47.738;7.420;2023-03-23T06:56:09;3.42;;;1.83;;
64938;SDS011;51453;47.738;7.420;2023-03-23T06:58:35;3.55;;;2.08;;
64938;SDS011;51453;47.738;7.420;2023-03-23T07:01:01;4.18;;;2.10;;
64938;SDS011;51453;47.738;7.420;2023-03-23T07:03:30;2.97;;;2.03;;
64938;SDS011;51453;47.738;7.420;2023-03-23T07:05:56;2.53;;;1.98;;
64938;SDS011;51453;47.738;7.420;2023-03-23T07:08:22;2.92;;;1.80;;
64938;SDS011;51453;47.738;7.420;2023-03-23T07:10:50;2.17;;;1.88;;
64938;SDS011;51453;47.738;7.420;2023-03-23T07:13:17;3.25;;;1.77;;
64938;SDS011;51453;47.738;7.420;2023-03-23T07:15:44;2.92;;;2.08;;
64938;SDS011;51453;47.738;7.420;2023-03-23T07:18:09;2.63;;;1.88;;
64938;SDS011;51453;47.738;7.420;2023-03-23T07:20:35;4.47;;;2.00;;
64938;SDS011;51453;47.738;7.420;2023-03-23T07:23:01;5.30;;;1.88;;
64938;SDS011;51453;47.738;7.420;2023-03-23T07:25:30;3.25;;;1.85;;
64938;SDS011;51453;47.738;7.420;2023-03-23T07:27:57;2.28;;;1.88;;
64938;SDS011;51453;47.738;7.420;2023-03-23T07:30:27;4.82;;;2.13;;
64938;SDS011;51453;47.738;7.420;2023-03-23T07:32:54;2.80;;;1.80;;
64938;SDS011;51453;47.738;7.420;2023-03-23T07:35:21;4.57;;;2.20;;
64938;SDS011;51453;47.738;7.420;2023-03-23T07:37:47;2.67;;;1.90;;
64938;SDS011;51453;47.738;7.420;2023-03-23T07:40:14;3.45;;;2.00;;
64938;SDS011;51453;47.738;7.420;2023-03-23T07:42:44;4.80;;;2.05;;
64938;SDS011;51453;47.738;7.420;2023-03-23T07:45:14;2.38;;;1.88;;
64938;SDS011;51453;47.738;7.420;2023-03-23T07:47:40;6.18;;;2.17;;
64938;SDS011;51453;47.738;7.420;2023-03-23T07:50:07;4.88;;;2.38;;
64938;SDS011;51453;47.738;7.420;2023-03-23T07:52:34;3.97;;;2.97;;
64938;SDS011;51453;47.738;7.420;2023-03-23T07:55:04;7.28;;;4.28;;
64938;SDS011;51453;47.738;7.420;2023-03-23T07:57:31;3.72;;;2.22;;
64938;SDS011;51453;47.738;7.420;2023-03-23T07:59:57;3.72;;;2.65;;
64938;SDS011;51453;47.738;7.420;2023-03-23T08:02:24;5.18;;;2.65;;
64938;SDS011;51453;47.738;7.420;2023-03-23T08:04:50;5.95;;;2.95;;
64938;SDS011;51453;47.738;7.420;2023-03-23T08:07:16;5.97;;;2.28;;
64938;SDS011;51453;47.738;7.420;2023-03-23T08:09:44;6.38;;;2.53;;
64938;SDS011;51453;47.738;7.420;2023-03-23T08:12:11;4.68;;;2.33;;
64938;SDS011;51453;47.738;7.420;2023-03-23T08:14:37;5.53;;;2.70;;
64938;SDS011;51453;47.738;7.420;2023-03-23T08:17:03;4.95;;;2.78;;
64938;SDS011;51453;47.738;7.420;2023-03-23T08:19:29;3.03;;;2.45;;
64938;SDS011;51453;47.738;7.420;2023-03-23T08:21:55;4.05;;;2.25;;
64938;SDS011;51453;47.738;7.420;2023-03-23T08:24:21;4.53;;;2.65;;
64938;SDS011;51453;47.738;7.420;2023-03-23T08:26:46;2.13;;;1.92;;
64938;SDS011;51453;47.738;7.420;2023-03-23T08:29:12;5.22;;;2.80;;
64938;SDS011;51453;47.738;7.420;2023-03-23T08:31:39;3.67;;;2.25;;
64938;SDS011;51453;47.738;7.420;2023-03-23T08:34:05;3.40;;;2.10;;
64938;SDS011;51453;47.738;7.420;2023-03-23T08:36:32;3.30;;;2.60;;
64938;SDS011;51453;47.738;7.420;2023-03-23T08:38:59;2.80;;;2.40;;
64938;SDS011;51453;47.738;7.420;2023-03-23T08:41:29;2.25;;;2.00;;
64938;SDS011;51453;47.738;7.420;2023-03-23T08:43:55;3.92;;;2.17;;
64938;SDS011;51453;47.738;7.420;2023-03-23T08:46:21;4.25;;;2.05;;
64938;SDS011;51453;47.738;7.420;2023-03-23T08:48:47;4.55;;;2.05;;
64938;SDS011;51453;47.738;7.420;2023-03-23T08:51:13;2.95;;;2.00;;
64938;SDS011;51453;47.738;7.420;2023-03-23T08:53:38;2.45;;;1.98;;
64938;SDS011;51453;47.738;7.420;2023-03-23T08:56:05;3.70;;;2.13;;
64938;SDS011;51453;47.738;7.420;2023-03-23T08:58:33;4.63;;;2.00;;
64938;SDS011;51453;47.738;7.420;2023-03-23T09:01:00;2.83;;;2.45;;
64938;SDS011;51453;47.738;7.420;2023-03-23T09:03:26;4.13;;;2.72;;
64938;SDS011;51453;47.738;7.420;2023-03-23T09:05:52;5.25;;;3.20;;
64938;SDS011;51453;47.738;7.420;2023-03-23T09:08:18;3.67;;;2.72;;
64938;SDS011;51453;47.738;7.420;2023-03-23T09:10:44;2.85;;;1.90;;
64938;SDS011;51453;47.738;7.420;2023-03-23T09:13:10;3.92;;;1.90;;
64938;SDS011;51453;47.738;7.420;2023-03-23T09:15:36;2.17;;;1.50;;
64938;SDS011;51453;47.738;7.420;2023-03-23T09:18:01;4.72;;;1.50;;
64938;SDS011;51453;47.738;7.420;2023-03-23T09:20:28;2.10;;;1.50;;
64938;SDS011;51453;47.738;7.420;2023-03-23T09:22:55;2.97;;;1.60;;
64938;SDS011;51453;47.738;7.420;2023-03-23T09:25:23;2.03;;;1.30;;
64938;SDS011;51453;47.738;7.420;2023-03-23T09:27:52;3.60;;;1.65;;
64938;SDS011;51453;47.738;7.420;2023-03-23T09:30:21;3.63;;;1.58;;
64938;SDS011;51453;47.738;7.420;2023-03-23T09:32:53;3.33;;;1.80;;
64938;SDS011;51453;47.738;7.420;2023-03-23T09:35:19;2.58;;;1.52;;
64938;SDS011;51453;47.738;7.420;2023-03-23T09:37:46;3.53;;;1.98;;
64938;SDS011;51453;47.738;7.420;2023-03-23T09:40:14;3.20;;;2.00;;
64938;SDS011;51453;47.738;7.420;2023-03-23T09:53:49;1.80;;;1.50;;
64938;SDS011;51453;47.738;7.420;2023-03-23T09:56:18;4.35;;;1.50;;
64938;SDS011;51453;47.738;7.420;2023-03-23T09:58:53;1.50;;;1.40;;
64938;SDS011;51453;47.738;7.420;2023-03-23T10:01:26;2.47;;;1.50;;
64938;SDS011;51453;47.738;7.420;2023-03-23T10:03:55;7.60;;;3.00;;
64938;SDS011;51453;47.738;7.420;2023-03-23T10:06:31;3.53;;;1.60;;
64938;SDS011;51453;47.738;7.420;2023-03-23T10:08:58;1.85;;;1.65;;
64938;SDS011;51453;47.738;7.420;2023-03-23T10:17:13;1.33;;;1.23;;
64938;SDS011;51453;47.738;7.420;2023-03-23T10:19:50;2.65;;;1.60;;
64938;SDS011;51453;47.738;7.420;2023-03-23T10:22:33;3.15;;;1.30;;
64938;SDS011;51453;47.738;7.420;2023-03-23T10:30:37;1.38;;;1.27;;
64938;SDS011;51453;47.738;7.420;2023-03-23T10:36:07;2.97;;;1.40;;
64938;SDS011;51453;47.738;7.420;2023-03-23T10:38:45;2.50;;;1.58;;
64938;SDS011;51453;47.738;7.420;2023-03-23T10:41:15;1.48;;;1.38;;
64938;SDS011;51453;47.738;7.420;2023-03-23T10:43:46;3.67;;;1.70;;
64938;SDS011;51453;47.738;7.420;2023-03-23T10:49:19;2.03;;;1.42;;
64938;SDS011;51453;47.738;7.420;2023-03-23T10:52:00;2.10;;;1.40;;
64938;SDS011;51453;47.738;7.420;2023-03-23T10:54:55;1.50;;;1.40;;
64938;SDS011;51453;47.738;7.420;2023-03-23T10:59:57;1.88;;;1.35;;
64938;SDS011;51453;47.738;7.420;2023-03-23T11:02:24;2.33;;;1.30;;
64938;SDS011;51453;47.738;7.420;2023-03-23T11:05:01;1.98;;;1.50;;
64938;SDS011;51453;47.738;7.420;2023-03-23T11:07:31;1.30;;;1.20;;
64938;SDS011;51453;47.738;7.420;2023-03-23T11:10:22;2.60;;;1.25;;
64938;SDS011;51453;47.738;7.420;2023-03-23T11:12:50;1.92;;;1.20;;
64938;SDS011;51453;47.738;7.420;2023-03-23T11:15:31;4.10;;;1.38;;
64938;SDS011;51453;47.738;7.420;2023-03-23T11:18:06;3.35;;;1.23;;
64938;SDS011;51453;47.738;7.420;2023-03-23T11:20:37;1.40;;;1.23;;
64938;SDS011;51453;47.738;7.420;2023-03-23T11:23:17;1.58;;;1.10;;
64938;SDS011;51453;47.738;7.420;2023-03-23T11:25:53;3.50;;;1.40;;
64938;SDS011;51453;47.738;7.420;2023-03-23T11:28:25;1.63;;;1.30;;
64938;SDS011;51453;47.738;7.420;2023-03-23T11:30:57;1.73;;;1.20;;
64938;SDS011;51453;47.738;7.420;2023-03-23T11:33:28;2.17;;;1.02;;
64938;SDS011;51453;47.738;7.420;2023-03-23T11:36:15;2.22;;;1.17;;
64938;SDS011;51453;47.738;7.420;2023-03-23T11:38:40;1.67;;;1.10;;
64938;SDS011;51453;47.738;7.420;2023-03-23T11:41:10;1.10;;;0.95;;
64938;SDS011;51453;47.738;7.420;2023-03-23T11:43:39;1.17;;;0.93;;
64938;SDS011;51453;47.738;7.420;2023-03-23T11:46:11;1.55;;;0.90;;
64938;SDS011;51453;47.738;7.420;2023-03-23T11:49:09;1.30;;;0.82;;
64938;SDS011;51453;47.738;7.420;2023-03-23T11:54:17;1.95;;;0.98;;
64938;SDS011;51453;47.738;7.420;2023-03-23T11:56:51;1.60;;;0.95;;
64938;SDS011;51453;47.738;7.420;2023-03-23T11:59:27;1.60;;;1.00;;
64938;SDS011;51453;47.738;7.420;2023-03-23T12:04:47;2.05;;;1.30;;
64938;SDS011;51453;47.738;7.420;2023-03-23T12:12:52;2.20;;;1.20;;
64938;SDS011;51453;47.738;7.420;2023-03-23T12:18:52;1.88;;;1.10;;
64938;SDS011;51453;47.738;7.420;2023-03-23T12:30:10;3.88;;;1.40;;
64938;SDS011;51453;47.738;7.420;2023-03-23T12:43:51;1.30;;;1.00;;
64938;SDS011;51453;47.738;7.420;2023-03-23T12:46:31;0.75;;;0.75;;
64938;SDS011;51453;47.738;7.420;2023-03-23T13:05:35;2.00;;;1.40;;
64938;SDS011;51453;47.738;7.420;2023-03-23T13:08:16;1.10;;;1.00;;
64938;SDS011;51453;47.738;7.420;2023-03-23T13:10:49;1.13;;;0.75;;
64938;SDS011;51453;47.738;7.420;2023-03-23T13:13:22;0.90;;;0.90;;
64938;SDS011;51453;47.738;7.420;2023-03-23T13:26:12;2.38;;;1.20;;
64938;SDS011;51453;47.738;7.420;2023-03-23T13:28:51;3.15;;;1.33;;
64938;SDS011;51453;47.738;7.420;2023-03-23T13:34:21;1.60;;;1.13;;
64938;SDS011;51453;47.738;7.420;2023-03-23T13:36:58;1.92;;;1.00;;
64938;SDS011;51453;47.738;7.420;2023-03-23T13:41:59;3.47;;;0.98;;
64938;SDS011;51453;47.738;7.420;2023-03-23T13:44:42;2.15;;;1.30;;
64938;SDS011;51453;47.738;7.420;2023-03-23T13:54:48;2.33;;;0.98;;
64938;SDS011;51453;47.738;7.420;2023-03-23T13:57:25;5.38;;;1.50;;
64938;SDS011;51453;47.738;7.420;2023-03-23T14:00:24;1.08;;;0.98;;
64938;SDS011;51453;47.738;7.420;2023-03-23T14:08:10;1.77;;;1.10;;
64938;SDS011;51453;47.738;7.420;2023-03-23T14:13:24;1.35;;;1.25;;
64938;SDS011;51453;47.738;7.420;2023-03-23T14:16:02;1.92;;;1.00;;
64938;SDS011;51453;47.738;7.420;2023-03-23T14:18:37;1.98;;;1.10;;
64938;SDS011;51453;47.738;7.420;2023-03-23T14:21:04;3.03;;;1.10;;
64938;SDS011;51453;47.738;7.420;2023-03-23T14:23:32;2.33;;;1.10;;
64938;SDS011;51453;47.738;7.420;2023-03-23T14:26:00;2.45;;;1.20;;
64938;SDS011;51453;47.738;7.420;2023-03-23T14:28:35;1.15;;;1.00;;
64938;SDS011;51453;47.738;7.420;2023-03-23T14:31:03;2.00;;;1.10;;
64938;SDS011;51453;47.738;7.420;2023-03-23T14:33:29;1.75;;;1.52;;
64938;SDS011;51453;47.738;7.420;2023-03-23T14:35:56;2.95;;;1.10;;
64938;SDS011;51453;47.738;7.420;2023-03-23T14:38:24;1.00;;;1.00;;
64938;SDS011;51453;47.738;7.420;2023-03-23T14:41:05;2.08;;;1.17;;
64938;SDS011;51453;47.738;7.420;2023-03-23T14:43:32;4.90;;;1.58;;
64938;SDS011;51453;47.738;7.420;2023-03-23T14:46:02;2.55;;;1.02;;
64938;SDS011;51453;47.738;7.420;2023-03-23T14:48:32;1.60;;;1.30;;
64938;SDS011;51453;47.738;7.420;2023-03-23T14:50:58;4.15;;;1.15;;
64938;SDS011;51453;47.738;7.420;2023-03-23T14:53:35;3.97;;;1.90;;
64938;SDS011;51453;47.738;7.420;2023-03-23T14:56:12;2.38;;;1.38;;
64938;SDS011;51453;47.738;7.420;2023-03-23T14:58:43;1.50;;;1.40;;
64938;SDS011;51453;47.738;7.420;2023-03-23T15:01:10;1.67;;;1.35;;
64938;SDS011;51453;47.738;7.420;2023-03-23T15:03:41;3.40;;;1.52;;
64938;SDS011;51453;47.738;7.420;2023-03-23T15:06:28;5.13;;;1.40;;
64938;SDS011;51453;47.738;7.420;2023-03-23T15:08:57;3.85;;;1.40;;
64938;SDS011;51453;47.738;7.420;2023-03-23T15:11:32;4.75;;;1.30;;
64938;SDS011;51453;47.738;7.420;2023-03-23T15:14:07;4.40;;;1.20;;
64938;SDS011;51453;47.738;7.420;2023-03-23T15:16:38;3.25;;;1.20;;
64938;SDS011;51453;47.738;7.420;2023-03-23T15:19:20;2.70;;;1.35;;
64938;SDS011;51453;47.738;7.420;2023-03-23T15:21:53;7.03;;;2.05;;
64938;SDS011;51453;47.738;7.420;2023-03-23T15:24:27;1.95;;;1.35;;
64938;SDS011;51453;47.738;7.420;2023-03-23T15:27:03;2.30;;;1.40;;
64938;SDS011;51453;47.738;7.420;2023-03-23T15:29:45;6.18;;;1.98;;
64938;SDS011;51453;47.738;7.420;2023-03-23T15:32:12;5.00;;;2.47;;
64938;SDS011;51453;47.738;7.420;2023-03-23T15:34:38;2.97;;;1.70;;
64938;SDS011;51453;47.738;7.420;2023-03-23T15:37:18;5.45;;;1.63;;
64938;SDS011;51453;47.738;7.420;2023-03-23T15:39:46;4.57;;;1.55;;
64938;SDS011;51453;47.738;7.420;2023-03-23T15:42:22;6.95;;;2.50;;
64938;SDS011;51453;47.738;7.420;2023-03-23T15:44:56;11.70;;;3.58;;
64938;SDS011;51453;47.738;7.420;2023-03-23T15:48:08;5.53;;;2.42;;
64938;SDS011;51453;47.738;7.420;2023-03-23T15:52:51;6.68;;;1.80;;
64938;SDS011;51453;47.738;7.420;2023-03-23T16:00:15;3.72;;;1.48;;
64938;SDS011;51453;47.738;7.420;2023-03-23T16:02:42;3.33;;;1.48;;
64938;SDS011;51453;47.738;7.420;2023-03-23T16:05:14;2.88;;;1.50;;
64938;SDS011;51453;47.738;7.420;2023-03-23T16:07:40;3.03;;;1.48;;
64938;SDS011;51453;47.738;7.420;2023-03-23T16:10:06;3.92;;;1.40;;
64938;SDS011;51453;47.738;7.420;2023-03-23T16:12:40;2.50;;;1.58;;
64938;SDS011;51453;47.738;7.420;2023-03-23T16:15:06;1.33;;;1.23;;
64938;SDS011;51453;47.738;7.420;2023-03-23T16:17:33;2.90;;;1.65;;
64938;SDS011;51453;47.738;7.420;2023-03-23T16:19:58;2.70;;;1.42;;
64938;SDS011;51453;47.738;7.420;2023-03-23T16:22:24;4.68;;;3.10;;
64938;SDS011;51453;47.738;7.420;2023-03-23T16:24:50;2.03;;;1.83;;
64938;SDS011;51453;47.738;7.420;2023-03-23T16:27:16;5.93;;;1.90;;
64938;SDS011;51453;47.738;7.420;2023-03-23T16:29:42;2.83;;;1.50;;
64938;SDS011;51453;47.738;7.420;2023-03-23T16:32:08;2.22;;;1.80;;
64938;SDS011;51453;47.738;7.420;2023-03-23T16:34:33;4.32;;;1.40;;
64938;SDS011;51453;47.738;7.420;2023-03-23T16:37:00;4.93;;;1.50;;
64938;SDS011;51453;47.738;7.420;2023-03-23T16:39:26;2.75;;;1.48;;
64938;SDS011;51453;47.738;7.420;2023-03-23T16:41:52;2.33;;;1.50;;
64938;SDS011;51453;47.738;7.420;2023-03-23T16:44:18;3.30;;;1.70;;
64938;SDS011;51453;47.738;7.420;2023-03-23T16:46:56;1.77;;;1.50;;
64938;SDS011;51453;47.738;7.420;2023-03-23T16:49:24;2.08;;;1.70;;
64938;SDS011;51453;47.738;7.420;2023-03-23T16:51:50;3.15;;;2.15;;
64938;SDS011;51453;47.738;7.420;2023-03-23T16:54:16;2.75;;;1.70;;
64938;SDS011;51453;47.738;7.420;2023-03-23T16:56:42;3.40;;;1.58;;
64938;SDS011;51453;47.738;7.420;2023-03-23T16:59:11;3.80;;;1.67;;
64938;SDS011;51453;47.738;7.420;2023-03-23T17:01:38;3.47;;;2.22;;
64938;SDS011;51453;47.738;7.420;2023-03-23T17:04:05;5.22;;;2.72;;
64938;SDS011;51453;47.738;7.420;2023-03-23T17:06:31;5.90;;;2.60;;
64938;SDS011;51453;47.738;7.420;2023-03-23T17:08:57;5.57;;;3.03;;
64938;SDS011;51453;47.738;7.420;2023-03-23T17:11:23;7.10;;;3.15;;
64938;SDS011;51453;47.738;7.420;2023-03-23T17:13:48;9.88;;;3.15;;
64938;SDS011;51453;47.738;7.420;2023-03-23T17:16:14;8.55;;;4.03;;
64938;SDS011;51453;47.738;7.420;2023-03-23T17:18:40;9.90;;;3.45;;
64938;SDS011;51453;47.738;7.420;2023-03-23T17:21:05;5.32;;;3.60;;
64938;SDS011;51453;47.738;7.420;2023-03-23T17:23:31;4.30;;;3.45;;
64938;SDS011;51453;47.738;7.420;2023-03-23T17:25:57;7.55;;;3.60;;